AirNav   ProFlight Series 2 Aviation Headset
 
 984 users online  

5MI6 TV2 Heliport
Southfield, Michigan, USA

GOING TO SOUTHFIELD?


FAA INFORMATION EFFECTIVE 18 JUNE 2020

Location

FAA Identifier: 5MI6
Lat/Long: 42-27-38.1280N 083-13-02.0000W
42-27.635467N 083-13.033333W
42.4605911,-83.2172222
(estimated)
Elevation: 650 ft. / 198.1 m (surveyed)
Variation: 06W (1985)
Time zone: UTC -4 (UTC -5 during Standard Time)
Zip code: 48075

Heliport Operations

Heliport use: Private use. Permission required prior to landing
Activation date: 09/1980
Control tower: no
ARTCC: CLEVELAND CENTER
FSS: LANSING FLIGHT SERVICE STATION
Attendance: 0600-2400
Wind indicator: lighted
Segmented circle: no

Heliport Communications

WX AWOS-3 at VLL (5 nm N): 119.475 (248-288-4649)
WX ASOS at DET (10 nm E): PHONE 313-371-9696
WX ASOS at PTK (15 nm NW): 125.025 (248-886-8551)
WX ASOS at DTW (16 nm S): 133.675 (734-955-5015)
WX ASOS at YIP (19 nm SW): PHONE 734-961-6843

Nearby radio navigation aids

VOR radial/distance  VOR name  Freq  Var
DXOr030/16.3DETROIT VOR/DME113.4006W
SVMr082/17.0SALEM VORTAC114.3003W
CRLr026/27.0CARLETON VOR/DME115.7003W
FNTr148/38.3FLINT VORTAC116.9006W

 
NDB name  Hdg/Dist  Freq  Var  ID
GROSSE ILE359/21.841907WRYS .-. -.-- ...
TECUMSEH055/39.223906WTCU - -.-. ..-

Heliport Services

Runway Information

Helipad H1

Dimensions: 60 x 20 ft. / 18 x 6 m
Surface: concrete
Operational restrictions: ALL APPROACHES FROM WEST; ALL TAKEOFFS TO WEST.
Latitude: 42-27.635333N
Longitude: 083-13.033333W
Elevation: 650.0 ft.
Traffic pattern: leftleft

Heliport Ownership and Management from official FAA records

Ownership: Privately-owned
Owner: WJBK-TV2
16550 W. NINE MILE ROAD
SOUTHFIELD, MI 48075
Phone 313-557-2000
Manager: BRIAN CROSSLEY
16550 W. NINE MILE ROAD
SOUTHFIELD, MI 48075
Phone (248) 552-5267

Additional Remarks

E111-4 FOR ALL PILOTS REGARDING ARRIVAL/DEPARTURE ROUTE OPERATIONS AND TWR GUY WIRE LOCATIONS PRIOR TO ANY PILOT'S AUTHORIZATION.
E111-3 ANTENNA TWR GUY WIRES ARE NOT REMOVED AND ARE APPROPRIATELY MAINTAINED; OWNER/OPERATOR CONDUCT A COMPLETE OPERATION BRIEFING.
E111-2 NON-OBSTRUCTING WIND INDICATOR IS MAINTAINED ADJACENT TO TAKEOFF/LANDING AREA; EXISTING ORANGE OBSTRUCTION MARKED BALLS ON THE.
A52-H1 MARKED & LIGHTED TOWER AND GUIDE WIRES VICINITY OF HELIPAD.
FOR CD CTC DETROIT APCH AT 800-499-8181.

Instrument Procedures

There are no published instrument procedures at 5MI6.

Some nearby airports with instrument procedures:

KVLL - Oakland/Troy Airport (5 nm N)
KDET - Coleman A Young Municipal Airport (10 nm E)
1D2 - Canton-Plymouth-Mettetal Airport (13 nm SW)
KPTK - Oakland County International Airport (15 nm NW)
KDTW - Detroit Metropolitan Wayne County Airport (16 nm S)
Y47 - Oakland Southwest Airport (18 nm W)
KMTC - Selfridge Air National Guard Base (19 nm NE)
KYIP - Willow Run Airport (19 nm SW)
 
Loc | Ops | Rwys | IFR | FBO | Links
Com | Nav | Svcs | Stats | Notes
Area around 5MI6 (TV2 Heliport)
 
Road maps at: MapQuest Bing Google
 
Aerial photo
No photo
 
Sectional chart

 
Airport distance calculator
Flying to TV2 Heliport? Find the distance to fly.

From to 5MI6

Sunrise and sunset
Times for 07-Jul-2020
 Local
(UTC-4)
 Zulu
(UTC)
Morning civil twilight05:3009:30
Sunrise06:0510:05
Sunset21:1101:11
Evening civil twilight21:4501:45

Current date and time
Zulu (UTC)  08-Jul-2020 00:35:52
Local (UTC-4)  07-Jul-2020 20:35:52
 
METAR
KVLL 
5nm N 
080015Z AUTO 00000KT 10SM SCT110 28/19 A2995 RMK AO2 T02770186
KDET 
10nm E 
080005Z 05010G27KT 4SM -TSRA BKN021 BKN065 OVC090 24/19 A2993 RMK AO2 PK WND 07027/2357 WSHFT 2341 LTG DSNT E PRESFR P0005 T02390194
KDTW 
15nm S 
080021Z 22018G27KT 2SM R03R/4500VP6000FT TSRA SCT060CB BKN100 OVC220 29/19 A2995 RMK AO2 PK WND 23027/0021 LTG DSNT NE AND E RAB09 TSB08 PRESRR OCNL LTGIC OHD-S TS OHD-S MOV SE CB DSNT E MOV SE T02890189 PNO $
KPTK 
15nm NW 
072353Z VRB04KT 10SM SCT055 BKN090 BKN270 31/17 A2993 RMK AO2 LTG DSNT SE RAB14E30 SLP126 CB DSNT SE STNRY ACC DSNT S-SW P0000 60000 T03060167 10344 20294 53001
CYQG 
16nm SE 
080020Z AUTO 03012G22KT 6SM -TSRA BR BKN065 OVC081 23/21 A2994 RMK LTNG DIST ALQDS RVR MISG SLP136 DENSITY ALT 1700FT
KYIP 
20nm SW 
080014Z 06003KT 10SM VCTS FEW100 31/25 A2992 RMK AO2 LTG DSNT NE AND E T03060250
TAF
KDET 
10nm E 
071720Z 0718/0818 27007KT P6SM SCT070 TEMPO 0720/0723 6SM -SHRA BKN070 FM080100 27003KT P6SM FEW070 FM080900 VRB03KT P6SM SCT100 FM081600 VRB05KT P6SM SCT060 BKN100
KDTW 
15nm S 
080025Z 0800/0906 27007KT P6SM VCTS SCT070CB BKN100 TEMPO 0800/0801 22016G24KT 3SM TSRA SCT060CB BKN100 FM080200 27003KT P6SM FEW070 FM080900 VRB03KT P6SM SCT100 FM081600 VRB05KT P6SM SCT060 BKN100 FM082000 16006KT P6SM SCT060 BKN150 FM090000 12003KT P6SM SCT250
KPTK 
15nm NW 
071720Z 0718/0818 27007KT P6SM SCT060 TEMPO 0720/0723 6SM -SHRA BKN060 FM080100 27003KT P6SM FEW070 FM080900 VRB03KT P6SM SCT100 FM081600 VRB05KT P6SM SCT060 BKN100
CYQG 
16nm SE 
072307Z 0723/0818 24010KT P6SM SCT070 TEMPO 0723/0801 VRB20G40KT 2SM TSRA BR SCT030 BKN060CB FM080200 05006KT P6SM FEW080 BECMG 0804/0805 VRB03KT FM081700 12007KT P6SM BKN060 RMK FCST BASED ON AUTO OBS. NXT FCST BY 080000Z
KYIP 
20nm SW 
071720Z 0718/0818 27007KT P6SM SCT070 TEMPO 0720/0723 6SM -SHRA BKN070 FM080100 27003KT P6SM FEW070 FM080900 VRB03KT P6SM SCT100 FM081600 VRB05KT P6SM SCT060 BKN100
NOTAMs
Click for the latest NOTAMs
NOTAMs are issued by the DoD/FAA and will open in a separate window not controlled by AirNav.

 

 
 

Would you like to see your business listed on this page?

 If your business provides an interesting product or service to pilots, flight crews, aircraft, or users of the TV2 Heliport, you should consider listing it here.  To start the listing process, click on the button below
 
Add a business
 

Other Pages about TV2 Heliport

Update a link
 
Copyright © AirNav, LLC. All rights reserved. Privacy Policy  Contact